Time;durP1;ratioP1;P1;durP2;ratioP2;P2;SDS_P1;SDS_P2;PMS_P1;PMS_P2;Temp;Humidity;BMP_temperature;BMP_pressure;BME280_temperature;BME280_humidity;BME280_pressure;Samples;Min_cycle;Max_cycle;Signal;HPM_P1;HPM_P2
2023/07/10 00:00:57;;;;;;;25.80;6.55;;;;;;;;;;5027666;28;20047;-65
2023/07/10 00:03:23;;;;;;;18.90;6.65;;;;;;;;;;5027559;28;20107;-65
2023/07/10 00:05:49;;;;;;;18.00;6.22;;;;;;;;;;5026516;28;20082;-65
2023/07/10 00:08:16;;;;;;;20.83;5.97;;;;;;;;;;5024649;28;20036;-65
2023/07/10 00:10:42;;;;;;;20.05;6.10;;;;;;;;;;5041533;28;20106;-65
2023/07/10 00:13:10;;;;;;;18.98;5.95;;;;;;;;;;5020912;28;20037;-65
2023/07/10 00:15:37;;;;;;;22.00;6.03;;;;;;;;;;5025993;28;20063;-65
2023/07/10 00:18:24;;;;;;;20.83;6.50;;;;;;;;;;5023134;28;20041;-65
2023/07/10 00:20:50;;;;;;;20.27;5.63;;;;;;;;;;5024579;28;20057;-67
2023/07/10 00:23:17;;;;;;;19.08;5.90;;;;;;;;;;5020702;28;20212;-65
2023/07/10 00:25:44;;;;;;;19.13;5.45;;;;;;;;;;5025272;28;20083;-65
2023/07/10 00:28:15;;;;;;;21.48;6.20;;;;;;;;;;5021076;28;20106;-65
2023/07/10 00:30:41;;;;;;;20.75;5.70;;;;;;;;;;5024514;28;20029;-65
2023/07/10 00:33:09;;;;;;;21.83;5.93;;;;;;;;;;5021200;28;20079;-65
2023/07/10 00:35:35;;;;;;;18.50;5.78;;;;;;;;;;5025180;28;20025;-65
2023/07/10 00:38:03;;;;;;;22.42;6.30;;;;;;;;;;5021694;28;20033;-66
2023/07/10 00:40:31;;;;;;;21.75;6.18;;;;;;;;;;5021986;28;20036;-66
2023/07/10 00:43:20;;;;;;;17.48;6.25;;;;;;;;;;5025671;28;20169;-65
2023/07/10 00:45:47;;;;;;;19.55;6.75;;;;;;;;;;5017595;28;20387;-65
2023/07/10 00:48:13;;;;;;;20.25;6.00;;;;;;;;;;5023838;28;20123;-66
2023/07/10 00:50:45;;;;;;;21.90;6.75;;;;;;;;;;5026736;28;20028;-66
2023/07/10 00:53:18;;;;;;;20.38;6.60;;;;;;;;;;5023604;28;20132;-66
2023/07/10 00:55:44;;;;;;;16.40;5.45;;;;;;;;;;5026233;28;20036;-66
2023/07/10 00:58:18;;;;;;;19.38;6.47;;;;;;;;;;5021523;28;20095;-65
2023/07/10 01:01:05;;;;;;;18.08;5.97;;;;;;;;;;5025478;28;20569;-66
2023/07/10 01:03:31;;;;;;;17.98;6.00;;;;;;;;;;5026906;28;20047;-66
2023/07/10 01:06:00;;;;;;;19.75;6.50;;;;;;;;;;5020012;28;20036;-66
2023/07/10 01:08:26;;;;;;;16.63;6.18;;;;;;;;;;5024200;28;20052;-66
2023/07/10 01:10:52;;;;;;;18.58;5.97;;;;;;;;;;5026104;28;20091;-65
2023/07/10 01:13:19;;;;;;;18.30;6.25;;;;;;;;;;5020182;28;20036;-66
2023/07/10 01:15:45;;;;;;;20.17;6.70;;;;;;;;;;5026213;28;20115;-66
2023/07/10 01:18:11;;;;;;;20.85;7.22;;;;;;;;;;5018894;28;20102;-66
2023/07/10 01:20:49;;;;;;;17.38;6.15;;;;;;;;;;5022854;28;20026;-65
2023/07/10 01:23:16;;;;;;;20.65;6.53;;;;;;;;;;5022889;28;20037;-65
2023/07/10 01:26:03;;;;;;;20.15;6.45;;;;;;;;;;5022538;28;20029;-65
2023/07/10 01:28:33;;;;;;;19.13;6.10;;;;;;;;;;5017910;28;20535;-65
2023/07/10 01:31:00;;;;;;;18.10;6.32;;;;;;;;;;5016547;28;20514;-65
2023/07/10 01:33:28;;;;;;;19.85;6.88;;;;;;;;;;5022157;28;20021;-65
2023/07/10 01:35:56;;;;;;;20.90;6.75;;;;;;;;;;5023548;28;20067;-64
2023/07/10 01:38:28;;;;;;;16.58;5.50;;;;;;;;;;5018468;28;20220;-65
2023/07/10 01:40:55;;;;;;;17.75;6.72;;;;;;;;;;5023891;28;20550;-67
2023/07/10 01:43:21;;;;;;;18.48;5.95;;;;;;;;;;5022461;28;20025;-66
2023/07/10 01:45:49;;;;;;;20.83;6.15;;;;;;;;;;5019267;28;20541;-66
2023/07/10 01:48:16;;;;;;;24.25;6.18;;;;;;;;;;5017476;28;20051;-65
2023/07/10 01:50:43;;;;;;;22.77;6.80;;;;;;;;;;5018527;28;20028;-64
2023/07/10 01:53:09;;;;;;;19.45;6.03;;;;;;;;;;5016458;28;20033;-67
2023/07/10 01:55:44;;;;;;;23.30;6.40;;;;;;;;;;5021124;28;20540;-66
2023/07/10 01:58:14;;;;;;;17.42;5.78;;;;;;;;;;5023149;28;20073;-66
2023/07/10 02:00:41;;;;;;;18.45;6.43;;;;;;;;;;5021963;28;20716;-66
2023/07/10 02:03:07;;;;;;;16.08;5.65;;;;;;;;;;5019771;28;20189;-65
2023/07/10 02:05:33;;;;;;;17.30;6.13;;;;;;;;;;5023301;28;20443;-66
2023/07/10 02:08:00;;;;;;;15.93;5.43;;;;;;;;;;5020568;28;20052;-64
2023/07/10 02:10:26;;;;;;;14.85;5.25;;;;;;;;;;5022146;28;20383;-65
2023/07/10 02:12:52;;;;;;;18.88;5.40;;;;;;;;;;5022153;28;20064;-65
2023/07/10 02:15:18;;;;;;;20.85;6.47;;;;;;;;;;5021736;28;20647;-65
2023/07/10 02:17:44;;;;;;;22.75;6.45;;;;;;;;;;5004787;28;20029;-64
2023/07/10 02:20:11;;;;;;;17.73;6.03;;;;;;;;;;5018960;28;20530;-65
2023/07/10 02:22:37;;;;;;;18.20;6.43;;;;;;;;;;5025938;28;20534;-64
2023/07/10 02:25:03;;;;;;;19.55;6.32;;;;;;;;;;5019057;28;20475;-65
2023/07/10 02:27:29;;;;;;;17.77;6.03;;;;;;;;;;5022465;28;20025;-64
2023/07/10 02:29:55;;;;;;;17.73;5.78;;;;;;;;;;5023656;28;20280;-65
2023/07/10 02:32:22;;;;;;;21.52;6.53;;;;;;;;;;5015323;28;20144;-65
2023/07/10 02:34:48;;;;;;;20.50;6.18;;;;;;;;;;5022703;28;20025;-65
2023/07/10 02:37:14;;;;;;;21.52;6.78;;;;;;;;;;5019159;28;20438;-65
2023/07/10 02:39:40;;;;;;;19.35;6.03;;;;;;;;;;5025197;28;20072;-66
2023/07/10 02:42:06;;;;;;;18.27;5.60;;;;;;;;;;5021590;28;20029;-64
2023/07/10 02:44:32;;;;;;;22.92;6.45;;;;;;;;;;5019556;28;20099;-65
2023/07/10 02:46:59;;;;;;;21.00;5.57;;;;;;;;;;5019579;28;20052;-65
2023/07/10 02:49:25;;;;;;;18.60;6.60;;;;;;;;;;5004767;28;20029;-64
2023/07/10 02:51:51;;;;;;;18.88;6.10;;;;;;;;;;5020937;28;20029;-67
2023/07/10 02:54:17;;;;;;;18.85;6.15;;;;;;;;;;5021879;28;20099;-66
2023/07/10 02:56:43;;;;;;;19.08;6.32;;;;;;;;;;5022096;28;20090;-65
2023/07/10 02:59:09;;;;;;;20.50;6.75;;;;;;;;;;5022599;28;20142;-65
2023/07/10 03:01:35;;;;;;;22.40;6.30;;;;;;;;;;5020487;28;20020;-65
2023/07/10 03:04:02;;;;;;;20.98;6.28;;;;;;;;;;5021657;28;20250;-65
2023/07/10 03:06:28;;;;;;;19.63;6.20;;;;;;;;;;5024402;28;20025;-65
2023/07/10 03:08:54;;;;;;;19.90;6.65;;;;;;;;;;5022130;28;20227;-65
2023/07/10 03:11:20;;;;;;;19.70;5.85;;;;;;;;;;5019295;28;20312;-66
2023/07/10 03:13:47;;;;;;;18.27;5.63;;;;;;;;;;5024861;28;20144;-65
2023/07/10 03:16:14;;;;;;;18.77;6.13;;;;;;;;;;5020660;28;20039;-67
2023/07/10 03:18:40;;;;;;;20.55;6.18;;;;;;;;;;5018765;28;20233;-65
2023/07/10 03:21:07;;;;;;;21.63;6.63;;;;;;;;;;5014668;28;20149;-65
2023/07/10 03:23:33;;;;;;;21.85;6.57;;;;;;;;;;5027101;28;20032;-63
2023/07/10 03:25:59;;;;;;;26.73;6.07;;;;;;;;;;5022861;28;20249;-67
2023/07/10 03:28:26;;;;;;;16.80;5.43;;;;;;;;;;5021262;28;20032;-65
2023/07/10 03:30:52;;;;;;;17.42;5.45;;;;;;;;;;5021070;28;20053;-65
2023/07/10 03:33:19;;;;;;;18.83;5.03;;;;;;;;;;5017882;28;20845;-65
2023/07/10 03:35:48;;;;;;;18.25;5.53;;;;;;;;;;5023560;28;20349;-66
2023/07/10 03:38:15;;;;;;;15.93;5.47;;;;;;;;;;5023929;28;20036;-65
2023/07/10 03:40:49;;;;;;;21.48;6.03;;;;;;;;;;5025543;28;20361;-65
2023/07/10 03:43:15;;;;;;;20.40;6.65;;;;;;;;;;5019506;28;20560;-65
2023/07/10 03:45:42;;;;;;;19.38;6.53;;;;;;;;;;5022915;28;20056;-67
2023/07/10 03:48:08;;;;;;;22.30;6.40;;;;;;;;;;5021099;28;20049;-67
2023/07/10 03:50:35;;;;;;;16.95;5.70;;;;;;;;;;5027242;28;20037;-65
2023/07/10 03:53:01;;;;;;;20.48;6.20;;;;;;;;;;5021704;28;20105;-65
2023/07/10 03:55:27;;;;;;;22.38;6.18;;;;;;;;;;5026561;28;20383;-66
2023/07/10 03:57:53;;;;;;;19.38;6.05;;;;;;;;;;5026626;28;20113;-66
2023/07/10 04:00:19;;;;;;;22.98;6.43;;;;;;;;;;5024350;28;20535;-66
2023/07/10 04:02:45;;;;;;;24.42;6.90;;;;;;;;;;5029499;28;20033;-66
2023/07/10 04:05:12;;;;;;;20.77;6.35;;;;;;;;;;5022024;28;20052;-66
2023/07/10 04:07:38;;;;;;;24.85;6.57;;;;;;;;;;5033944;28;20052;-66
2023/07/10 04:10:04;;;;;;;22.52;7.00;;;;;;;;;;5021220;28;20151;-65
2023/07/10 04:12:30;;;;;;;19.02;6.03;;;;;;;;;;5027936;28;20670;-65
2023/07/10 04:14:57;;;;;;;24.08;7.00;;;;;;;;;;5024828;28;20607;-65
2023/07/10 04:17:23;;;;;;;23.20;6.43;;;;;;;;;;5022823;28;20124;-65
2023/07/10 04:19:49;;;;;;;24.83;6.80;;;;;;;;;;5033805;28;20922;-65
2023/07/10 04:22:16;;;;;;;19.05;6.38;;;;;;;;;;5022053;28;20756;-65
2023/07/10 04:24:42;;;;;;;19.33;6.22;;;;;;;;;;5028509;28;20139;-66
2023/07/10 04:27:08;;;;;;;20.25;6.65;;;;;;;;;;5026138;28;20065;-66
2023/07/10 04:29:35;;;;;;;21.77;7.03;;;;;;;;;;5029071;28;20318;-66
2023/07/10 04:32:01;;;;;;;19.70;6.68;;;;;;;;;;5022699;28;20115;-65
2023/07/10 04:34:27;;;;;;;23.90;7.22;;;;;;;;;;5027986;28;20262;-66
2023/07/10 04:36:53;;;;;;;22.85;7.20;;;;;;;;;;5031052;28;20033;-65
2023/07/10 04:39:19;;;;;;;22.88;7.05;;;;;;;;;;5026950;28;20095;-65
2023/07/10 04:41:45;;;;;;;20.63;6.07;;;;;;;;;;5026714;28;20047;-65
2023/07/10 04:44:12;;;;;;;22.48;6.90;;;;;;;;;;5023584;28;20372;-65
2023/07/10 04:46:38;;;;;;;20.95;6.63;;;;;;;;;;5026793;28;20060;-65
2023/07/10 04:49:04;;;;;;;19.83;6.53;;;;;;;;;;5016741;28;20513;-65
2023/07/10 04:51:30;;;;;;;22.83;6.47;;;;;;;;;;5031909;28;20130;-65
2023/07/10 04:53:56;;;;;;;13.82;5.47;;;;;;;;;;5028782;28;20040;-65
2023/07/10 04:56:22;;;;;;;19.23;5.97;;;;;;;;;;5024473;28;20588;-65
2023/07/10 04:58:53;;;;;;;17.55;5.55;;;;;;;;;;5028830;28;20733;-65
2023/07/10 05:01:21;;;;;;;16.90;5.57;;;;;;;;;;5023839;28;20036;-65
2023/07/10 05:03:47;;;;;;;18.38;5.72;;;;;;;;;;5028079;28;20048;-65
2023/07/10 05:06:14;;;;;;;21.08;6.00;;;;;;;;;;5026520;28;20043;-66
2023/07/10 05:08:40;;;;;;;24.08;6.65;;;;;;;;;;5028135;28;20040;-65
2023/07/10 05:11:06;;;;;;;24.20;7.38;;;;;;;;;;5020391;28;20034;-65
2023/07/10 05:13:32;;;;;;;22.40;7.78;;;;;;;;;;5025239;28;20403;-65
2023/07/10 05:15:59;;;;;;;24.77;7.95;;;;;;;;;;5027219;28;20036;-67
2023/07/10 05:18:26;;;;;;;29.25;7.60;;;;;;;;;;5027240;28;20037;-65
2023/07/10 05:20:52;;;;;;;22.90;8.07;;;;;;;;;;5025710;28;20123;-65
2023/07/10 05:23:21;;;;;;;23.88;8.00;;;;;;;;;;5021733;28;22250;-65
2023/07/10 05:25:54;;;;;;;23.42;7.90;;;;;;;;;;5023602;28;20116;-65
2023/07/10 05:28:21;;;;;;;23.63;7.70;;;;;;;;;;5025790;28;20633;-65
2023/07/10 05:30:47;;;;;;;22.27;6.70;;;;;;;;;;5030553;28;20047;-65
2023/07/10 05:33:13;;;;;;;24.05;7.00;;;;;;;;;;5025579;28;20087;-65
2023/07/10 05:35:48;;;;;;;23.30;7.13;;;;;;;;;;5027335;28;20142;-65
2023/07/10 05:38:14;;;;;;;23.90;7.78;;;;;;;;;;5025739;28;20032;-65
2023/07/10 05:40:43;;;;;;;24.95;7.78;;;;;;;;;;5028429;28;20033;-65
2023/07/10 05:43:09;;;;;;;33.97;8.05;;;;;;;;;;5024587;28;20110;-65
2023/07/10 05:45:35;;;;;;;22.33;7.38;;;;;;;;;;5023454;28;20468;-65
2023/07/10 05:48:01;;;;;;;21.50;8.10;;;;;;;;;;5025971;28;20506;-65
2023/07/10 05:50:27;;;;;;;22.40;7.88;;;;;;;;;;5025766;28;20033;-65
2023/07/10 05:52:53;;;;;;;21.85;9.93;;;;;;;;;;5030848;28;20064;-65
2023/07/10 05:55:20;;;;;;;22.35;8.30;;;;;;;;;;5019866;28;20032;-67
2023/07/10 05:57:46;;;;;;;20.27;7.88;;;;;;;;;;5025407;28;20056;-65
2023/07/10 06:00:12;;;;;;;19.65;8.18;;;;;;;;;;5021501;28;20032;-65
2023/07/10 06:02:38;;;;;;;20.70;8.07;;;;;;;;;;5030958;28;20110;-65
2023/07/10 06:05:05;;;;;;;22.20;8.00;;;;;;;;;;5021416;28;20162;-65
2023/07/10 06:07:31;;;;;;;23.90;7.40;;;;;;;;;;5020903;28;20083;-65
2023/07/10 06:09:57;;;;;;;26.05;7.32;;;;;;;;;;5025614;28;20379;-67
2023/07/10 06:12:24;;;;;;;24.23;7.03;;;;;;;;;;5025697;28;20028;-67
2023/07/10 06:14:50;;;;;;;19.30;6.97;;;;;;;;;;5029282;28;20149;-67
2023/07/10 06:17:16;;;;;;;21.95;7.05;;;;;;;;;;5020253;28;20024;-66
2023/07/10 06:19:42;;;;;;;20.40;6.38;;;;;;;;;;5017787;28;20288;-67
2023/07/10 06:22:10;;;;;;;17.17;6.32;;;;;;;;;;5022421;28;20031;-65
2023/07/10 06:24:36;;;;;;;16.42;5.35;;;;;;;;;;5023748;28;20052;-65
2023/07/10 06:27:02;;;;;;;20.15;6.22;;;;;;;;;;5021262;28;20033;-65
2023/07/10 06:29:29;;;;;;;22.90;8.15;;;;;;;;;;5019005;28;20044;-65
2023/07/10 06:31:55;;;;;;;19.88;7.00;;;;;;;;;;5026432;28;20033;-65
2023/07/10 06:34:21;;;;;;;23.80;8.63;;;;;;;;;;5023742;28;20509;-65
2023/07/10 06:36:47;;;;;;;25.45;7.65;;;;;;;;;;5024201;28;20401;-65
2023/07/10 06:39:14;;;;;;;23.63;7.13;;;;;;;;;;5022350;28;20037;-65
2023/07/10 06:41:40;;;;;;;23.52;7.00;;;;;;;;;;5028863;28;20021;-65
2023/07/10 06:44:06;;;;;;;26.10;7.28;;;;;;;;;;5023072;28;20061;-65
2023/07/10 06:46:32;;;;;;;25.70;7.32;;;;;;;;;;5021472;28;20069;-66
2023/07/10 06:48:58;;;;;;;23.10;7.03;;;;;;;;;;5027965;28;20162;-64
2023/07/10 06:51:25;;;;;;;21.20;6.55;;;;;;;;;;5030316;28;20376;-66
2023/07/10 06:53:51;;;;;;;16.75;6.18;;;;;;;;;;5026819;28;20037;-66
2023/07/10 06:56:17;;;;;;;26.30;7.15;;;;;;;;;;5030266;28;20109;-66
2023/07/10 06:58:43;;;;;;;25.83;6.13;;;;;;;;;;5029071;28;20021;-66
2023/07/10 07:01:09;;;;;;;22.52;6.53;;;;;;;;;;5028512;28;20033;-66
2023/07/10 07:03:36;;;;;;;18.08;6.43;;;;;;;;;;5030001;28;20305;-66
2023/07/10 07:06:05;;;;;;;19.08;6.20;;;;;;;;;;5020380;28;20040;-66
2023/07/10 07:08:31;;;;;;;17.73;6.00;;;;;;;;;;5029864;28;20585;-66
2023/07/10 07:10:58;;;;;;;17.77;6.15;;;;;;;;;;5025797;28;20032;-65
2023/07/10 07:13:24;;;;;;;21.55;6.53;;;;;;;;;;5033080;28;20024;-66
2023/07/10 07:15:54;;;;;;;19.65;5.65;;;;;;;;;;5033328;28;20221;-65
2023/07/10 07:18:21;;;;;;;20.77;6.25;;;;;;;;;;5022894;28;20052;-66
2023/07/10 07:20:48;;;;;;;20.80;6.00;;;;;;;;;;5026941;28;20039;-65
2023/07/10 07:23:14;;;;;;;20.30;5.78;;;;;;;;;;5029125;28;20150;-66
2023/07/10 07:25:41;;;;;;;20.80;5.70;;;;;;;;;;5030325;28;20035;-66
2023/07/10 07:28:08;;;;;;;18.02;6.13;;;;;;;;;;5029588;28;20029;-65
2023/07/10 07:30:34;;;;;;;24.40;6.15;;;;;;;;;;5035131;28;20392;-65
2023/07/10 07:33:01;;;;;;;25.05;5.60;;;;;;;;;;5025632;28;20119;-66
2023/07/10 07:35:27;;;;;;;18.10;5.07;;;;;;;;;;5028937;28;20017;-66
2023/07/10 07:37:54;;;;;;;20.83;5.60;;;;;;;;;;5031733;28;20115;-65
2023/07/10 07:40:21;;;;;;;16.60;4.53;;;;;;;;;;5024567;28;20224;-65
2023/07/10 07:42:47;;;;;;;20.25;5.75;;;;;;;;;;5032831;28;20032;-65
2023/07/10 07:45:15;;;;;;;16.17;5.32;;;;;;;;;;5022735;28;20032;-65
2023/07/10 07:47:41;;;;;;;20.00;6.03;;;;;;;;;;5028439;28;20448;-65
2023/07/10 07:50:08;;;;;;;18.52;5.80;;;;;;;;;;5033187;28;20379;-65
2023/07/10 07:52:34;;;;;;;23.00;6.00;;;;;;;;;;5031197;28;20025;-65
2023/07/10 07:55:00;;;;;;;24.67;6.20;;;;;;;;;;5030410;28;20379;-65
2023/07/10 07:57:27;;;;;;;20.83;5.60;;;;;;;;;;5032784;28;20037;-65
2023/07/10 07:59:53;;;;;;;17.23;5.60;;;;;;;;;;5032682;28;20028;-65
2023/07/10 08:02:19;;;;;;;16.70;5.43;;;;;;;;;;5030919;28;20490;-65
2023/07/10 08:04:45;;;;;;;20.98;5.57;;;;;;;;;;5028490;28;20032;-65
2023/07/10 08:07:11;;;;;;;20.88;5.07;;;;;;;;;;5030621;28;20229;-64
2023/07/10 08:09:38;;;;;;;18.75;6.18;;;;;;;;;;5029638;28;20385;-65
2023/07/10 08:12:04;;;;;;;18.98;5.85;;;;;;;;;;5027652;28;20033;-64
2023/07/10 08:14:30;;;;;;;18.48;6.13;;;;;;;;;;5027775;28;20446;-66
2023/07/10 08:16:58;;;;;;;20.02;6.45;;;;;;;;;;5026591;28;20055;-66
2023/07/10 08:19:24;;;;;;;18.90;6.03;;;;;;;;;;5031401;28;20122;-67
2023/07/10 08:21:50;;;;;;;21.70;5.63;;;;;;;;;;5036173;28;20524;-66
2023/07/10 08:24:17;;;;;;;19.85;5.38;;;;;;;;;;5028304;28;20036;-66
2023/07/10 08:26:43;;;;;;;21.20;5.57;;;;;;;;;;5035591;28;20033;-66
2023/07/10 08:29:29;;;;;;;21.00;5.63;;;;;;;;;;5024823;28;20030;-66
2023/07/10 08:31:56;;;;;;;17.85;5.25;;;;;;;;;;5030358;28;20083;-66
2023/07/10 08:34:23;;;;;;;21.00;5.93;;;;;;;;;;5033622;28;20024;-70
2023/07/10 08:36:52;;;;;;;21.60;6.05;;;;;;;;;;5032517;28;20063;-66
2023/07/10 08:39:19;;;;;;;20.30;5.68;;;;;;;;;;5021018;28;20997;-66
2023/07/10 08:41:49;;;;;;;19.98;6.10;;;;;;;;;;5030694;28;20166;-65
2023/07/10 08:44:16;;;;;;;24.20;5.72;;;;;;;;;;5026664;28;20032;-66
2023/07/10 08:46:43;;;;;;;16.42;4.97;;;;;;;;;;5033677;28;20090;-66
2023/07/10 08:49:27;;;;;;;20.27;5.90;;;;;;;;;;5035152;28;20017;-66
2023/07/10 08:52:01;;;;;;;23.02;5.95;;;;;;;;;;5034282;28;20025;-66
2023/07/10 08:54:27;;;;;;;20.30;5.50;;;;;;;;;;5043425;28;20595;-65
2023/07/10 08:57:12;;;;;;;19.50;5.72;;;;;;;;;;5031974;28;20063;-66
2023/07/10 08:59:43;;;;;;;22.42;5.40;;;;;;;;;;5022850;28;20553;-66
2023/07/10 09:02:29;;;;;;;18.77;5.25;;;;;;;;;;5027481;28;20033;-66
2023/07/10 09:04:56;;;;;;;20.85;5.85;;;;;;;;;;5005586;28;20037;-67
2023/07/10 09:07:23;;;;;;;16.75;5.53;;;;;;;;;;5027390;28;20045;-66
2023/07/10 09:09:53;;;;;;;20.15;5.68;;;;;;;;;;5034645;28;20455;-66
2023/07/10 09:12:33;;;;;;;25.27;5.93;;;;;;;;;;5022768;28;20029;-66
2023/07/10 09:15:02;;;;;;;16.50;5.05;;;;;;;;;;5024426;28;20017;-68
2023/07/10 09:17:54;;;;;;;17.67;5.60;;;;;;;;;;5026542;28;20056;-66
2023/07/10 09:20:22;;;;;;;20.95;6.00;;;;;;;;;;5026501;28;20075;-66
2023/07/10 09:22:52;;;;;;;18.80;5.53;;;;;;;;;;5025749;28;20477;-66
2023/07/10 09:25:20;;;;;;;19.88;5.13;;;;;;;;;;5021091;28;20043;-66
2023/07/10 09:27:47;;;;;;;18.88;5.50;;;;;;;;;;5021417;28;20036;-66
2023/07/10 09:30:28;;;;;;;22.30;5.63;;;;;;;;;;5026877;28;20029;-67
2023/07/10 09:33:04;;;;;;;22.60;5.55;;;;;;;;;;5024989;28;20356;-66
2023/07/10 09:35:31;;;;;;;22.65;6.15;;;;;;;;;;5021306;28;20820;-66
2023/07/10 09:37:57;;;;;;;23.73;5.25;;;;;;;;;;5023096;28;20029;-67
2023/07/10 09:40:39;;;;;;;21.75;5.40;;;;;;;;;;5021678;28;20016;-66
2023/07/10 09:43:10;;;;;;;22.23;5.53;;;;;;;;;;5022411;28;20574;-66
2023/07/10 09:45:42;;;;;;;22.05;5.65;;;;;;;;;;5023149;28;20025;-66
2023/07/10 09:48:14;;;;;;;24.85;5.68;;;;;;;;;;5023152;28;20037;-66
2023/07/10 09:50:41;;;;;;;24.80;6.18;;;;;;;;;;5026890;28;20035;-66
2023/07/10 09:53:22;;;;;;;19.95;5.07;;;;;;;;;;5020446;28;20056;-66
2023/07/10 09:55:48;;;;;;;16.27;5.22;;;;;;;;;;5023457;28;20063;-66
2023/07/10 09:58:14;;;;;;;25.17;6.32;;;;;;;;;;5021719;28;20103;-66
2023/07/10 10:00:44;;;;;;;23.23;5.70;;;;;;;;;;5024254;28;20329;-67
2023/07/10 10:03:16;;;;;;;20.30;5.30;;;;;;;;;;5024983;28;20056;-66
2023/07/10 10:05:43;;;;;;;24.75;6.25;;;;;;;;;;5029291;28;20035;-66
2023/07/10 10:08:19;;;;;;;23.70;6.15;;;;;;;;;;5018048;28;20033;-66
2023/07/10 10:10:45;;;;;;;20.70;6.00;;;;;;;;;;5025775;28;20116;-66
2023/07/10 10:13:18;;;;;;;23.08;5.88;;;;;;;;;;5018458;28;20128;-67
2023/07/10 10:15:49;;;;;;;16.45;4.68;;;;;;;;;;5025631;28;20138;-66
2023/07/10 10:18:34;;;;;;;20.17;5.47;;;;;;;;;;5022519;28;20029;-66
2023/07/10 10:21:02;;;;;;;19.00;4.95;;;;;;;;;;5023347;28;20036;-66
2023/07/10 10:23:32;;;;;;;22.98;5.68;;;;;;;;;;5021943;28;20033;-66
2023/07/10 10:26:17;;;;;;;16.45;5.07;;;;;;;;;;5023830;28;20037;-66
2023/07/10 10:28:54;;;;;;;24.13;6.28;;;;;;;;;;5025035;28;20083;-66
2023/07/10 10:31:25;;;;;;;21.27;5.57;;;;;;;;;;5036068;28;20036;-66
2023/07/10 10:34:24;;;;;;;23.98;6.05;;;;;;;;;;5016315;28;20118;-65
2023/07/10 10:36:56;;;;;;;18.92;5.72;;;;;;;;;;4996155;28;20147;-66
2023/07/10 10:39:22;;;;;;;15.93;5.35;;;;;;;;;;5019904;28;20373;-66
2023/07/10 10:41:50;;;;;;;24.15;6.40;;;;;;;;;;5027427;28;20090;-66
2023/07/10 10:44:26;;;;;;;26.55;6.28;;;;;;;;;;5022761;28;20036;-66
2023/07/10 10:47:00;;;;;;;20.52;5.38;;;;;;;;;;5023923;28;20060;-66
2023/07/10 10:49:29;;;;;;;21.98;5.47;;;;;;;;;;5026177;28;20111;-66
2023/07/10 10:52:09;;;;;;;25.85;5.80;;;;;;;;;;5023552;28;20043;-66
2023/07/10 10:54:53;;;;;;;20.23;5.50;;;;;;;;;;5024120;28;20305;-66
2023/07/10 10:57:23;;;;;;;20.57;5.40;;;;;;;;;;5020006;28;20045;-67
2023/07/10 10:59:58;;;;;;;19.08;5.38;;;;;;;;;;5025907;28;20044;-66
2023/07/10 11:02:33;;;;;;;25.65;6.03;;;;;;;;;;5024030;28;20029;-66
2023/07/10 11:05:21;;;;;;;26.55;5.80;;;;;;;;;;5025420;28;20028;-66
2023/07/10 11:07:51;;;;;;;23.70;6.05;;;;;;;;;;5038943;28;20086;-67
2023/07/10 11:10:21;;;;;;;17.90;5.45;;;;;;;;;;5042752;28;20028;-66
2023/07/10 11:12:48;;;;;;;21.83;5.93;;;;;;;;;;5029281;28;20066;-66
2023/07/10 11:15:17;;;;;;;19.33;5.65;;;;;;;;;;5024684;28;20043;-66
2023/07/10 11:17:45;;;;;;;25.15;6.45;;;;;;;;;;5025786;28;20406;-65
2023/07/10 11:20:15;;;;;;;24.90;6.60;;;;;;;;;;5025422;28;20563;-65
2023/07/10 11:23:11;;;;;;;21.48;5.95;;;;;;;;;;5027489;28;20120;-66
2023/07/10 11:25:39;;;;;;;17.55;5.25;;;;;;;;;;4978835;28;20061;-65
2023/07/10 11:28:18;;;;;;;21.98;5.78;;;;;;;;;;4975648;28;20057;-66
2023/07/10 11:30:44;;;;;;;19.73;5.53;;;;;;;;;;4980110;28;20212;-68
2023/07/10 11:33:18;;;;;;;18.35;5.55;;;;;;;;;;4979516;28;20026;-68
2023/07/10 11:36:19;;;;;;;22.38;5.32;;;;;;;;;;4978708;28;20042;-67
2023/07/10 11:38:55;;;;;;;22.35;5.68;;;;;;;;;;4943741;28;20117;-67
2023/07/10 11:41:24;;;;;;;20.33;5.65;;;;;;;;;;4945472;28;20128;-67
2023/07/10 11:43:53;;;;;;;17.33;5.57;;;;;;;;;;4946136;28;20054;-67
2023/07/10 11:46:24;;;;;;;22.38;5.57;;;;;;;;;;4943248;28;20046;-67
2023/07/10 11:49:09;;;;;;;22.40;6.25;;;;;;;;;;4946953;28;20485;-68
2023/07/10 11:51:35;;;;;;;26.35;5.90;;;;;;;;;;4950361;28;20562;-67
2023/07/10 11:54:13;;;;;;;20.02;5.78;;;;;;;;;;4948673;28;20034;-67
2023/07/10 11:56:59;;;;;;;16.00;5.18;;;;;;;;;;4950722;28;20520;-67
2023/07/10 11:59:26;;;;;;;22.60;6.40;;;;;;;;;;4951695;28;20552;-67
2023/07/10 12:01:53;;;;;;;27.67;6.57;;;;;;;;;;4964881;28;20057;-67
2023/07/10 12:04:22;;;;;;;21.52;5.78;;;;;;;;;;4986816;28;21266;-68
2023/07/10 12:06:49;;;;;;;25.88;6.18;;;;;;;;;;4973263;28;20052;-67
2023/07/10 12:09:15;;;;;;;18.73;6.03;;;;;;;;;;4987048;28;20034;-67
2023/07/10 12:11:41;;;;;;;18.92;5.95;;;;;;;;;;4989405;28;20026;-67
2023/07/10 12:14:12;;;;;;;19.75;5.68;;;;;;;;;;5027190;28;20034;-68
2023/07/10 12:16:46;;;;;;;22.95;6.45;;;;;;;;;;5046037;28;20414;-67
2023/07/10 12:19:12;;;;;;;;;;;;;;;;;;5031744;28;20033;-67
2023/07/10 12:21:38;;;;;;;22.60;6.13;;;;;;;;;;5032012;28;19908;-68
2023/07/10 12:24:04;;;;;;;21.27;5.60;;;;;;;;;;5029577;28;20041;-68
2023/07/10 12:26:31;;;;;;;25.92;5.97;;;;;;;;;;5029823;28;20485;-68
2023/07/10 12:28:58;;;;;;;21.05;5.95;;;;;;;;;;5027525;28;20474;-68
2023/07/10 12:31:25;;;;;;;21.48;5.82;;;;;;;;;;5032389;28;20021;-67
2023/07/10 12:33:52;;;;;;;22.67;6.30;;;;;;;;;;5033572;28;20025;-68
2023/07/10 12:36:24;;;;;;;23.63;5.88;;;;;;;;;;5033736;28;24281;-67
2023/07/10 12:38:50;;;;;;;19.90;5.53;;;;;;;;;;5037213;28;20041;-68
2023/07/10 12:41:20;;;;;;;17.50;5.47;;;;;;;;;;5026219;28;20115;-68
2023/07/10 12:43:48;;;;;;;21.58;5.88;;;;;;;;;;5033584;28;20131;-68
2023/07/10 12:46:18;;;;;;;23.27;5.90;;;;;;;;;;5026719;28;20055;-67
2023/07/10 12:48:45;;;;;;;20.65;5.97;;;;;;;;;;5027907;28;20029;-67
2023/07/10 12:51:18;;;;;;;19.70;5.38;;;;;;;;;;5027467;28;20527;-67
2023/07/10 12:53:44;;;;;;;22.70;6.00;;;;;;;;;;5031652;28;20029;-67
2023/07/10 12:56:10;;;;;;;21.98;6.03;;;;;;;;;;5025425;28;20029;-67
2023/07/10 12:58:37;;;;;;;27.73;6.15;;;;;;;;;;5031904;28;20085;-67
2023/07/10 13:01:29;;;;;;;22.13;6.00;;;;;;;;;;5031580;28;20041;-67
2023/07/10 13:04:19;;;;;;;22.75;6.10;;;;;;;;;;5026189;28;20048;-67
2023/07/10 13:06:45;;;;;;;23.50;6.50;;;;;;;;;;5018227;28;20052;-68
2023/07/10 13:09:20;;;;;;;20.23;5.63;;;;;;;;;;5025612;28;20032;-67
2023/07/10 13:11:46;;;;;;;19.20;6.15;;;;;;;;;;5033075;28;20626;-67
2023/07/10 13:14:20;;;;;;;17.92;5.65;;;;;;;;;;5032943;28;20036;-67
2023/07/10 13:16:46;;;;;;;;;;;;;;;;;;5036198;28;20041;-67
2023/07/10 13:19:12;;;;;;;20.02;5.35;;;;;;;;;;5029652;28;20434;-67
2023/07/10 13:21:39;;;;;;;22.38;5.93;;;;;;;;;;5028258;28;20104;-66
2023/07/10 13:24:05;;;;;;;25.15;5.80;;;;;;;;;;5027490;28;20040;-66
2023/07/10 13:26:31;;;;;;;26.48;5.78;;;;;;;;;;5031183;28;20515;-67
2023/07/10 13:28:57;;;;;;;16.80;5.40;;;;;;;;;;5033698;28;20071;-68
2023/07/10 13:31:24;;;;;;;18.05;5.80;;;;;;;;;;5029082;28;20033;-66
2023/07/10 13:33:50;;;;;;;20.48;5.88;;;;;;;;;;5029384;28;20488;-68
2023/07/10 13:36:16;;;;;;;19.20;5.45;;;;;;;;;;5025293;28;20063;-68
2023/07/10 13:38:43;;;;;;;23.08;5.95;;;;;;;;;;5032294;28;20037;-68
2023/07/10 13:41:13;;;;;;;19.33;5.38;;;;;;;;;;5027593;28;20120;-68
2023/07/10 13:43:39;;;;;;;19.95;5.82;;;;;;;;;;5029038;28;20502;-68
2023/07/10 13:46:17;;;;;;;18.70;5.78;;;;;;;;;;5027228;28;20124;-68
2023/07/10 13:48:44;;;;;;;16.10;5.05;;;;;;;;;;5037918;28;20098;-69
2023/07/10 13:51:11;;;;;;;21.17;6.22;;;;;;;;;;5033034;28;20115;-69
2023/07/10 13:53:38;;;;;;;19.75;5.28;;;;;;;;;;5031980;28;20340;-68
2023/07/10 13:56:11;;;;;;;21.10;5.18;;;;;;;;;;5030490;28;20210;-69
2023/07/10 13:58:37;;;;;;;;;;;;;;;;;;5029452;28;20021;-68
2023/07/10 14:01:03;;;;;;;20.13;5.63;;;;;;;;;;5029987;28;20116;-68
2023/07/10 14:03:30;;;;;;;19.23;5.50;;;;;;;;;;5032147;28;20053;-68
2023/07/10 14:05:57;;;;;;;18.88;5.32;;;;;;;;;;5028199;28;20040;-67
2023/07/10 14:08:23;;;;;;;22.33;5.90;;;;;;;;;;5028464;28;20029;-68
2023/07/10 14:10:52;;;;;;;20.23;5.85;;;;;;;;;;5029449;28;20366;-69
2023/07/10 14:13:18;;;;;;;19.42;5.15;;;;;;;;;;5027678;28;20028;-68
2023/07/10 14:15:45;;;;;;;20.25;6.00;;;;;;;;;;5031010;28;20115;-68
2023/07/10 14:18:18;;;;;;;23.70;6.22;;;;;;;;;;5032169;28;20044;-67
2023/07/10 14:20:44;;;;;;;22.90;5.93;;;;;;;;;;5023914;28;20032;-67
2023/07/10 14:23:15;;;;;;;19.65;6.00;;;;;;;;;;5027769;28;20040;-67
2023/07/10 14:25:41;;;;;;;21.60;5.68;;;;;;;;;;5026754;28;20090;-67
2023/07/10 14:28:15;;;;;;;20.00;5.88;;;;;;;;;;5025766;28;20556;-67
2023/07/10 14:30:42;;;;;;;19.85;6.28;;;;;;;;;;5029109;28;20025;-67
2023/07/10 14:33:09;;;;;;;23.73;6.63;;;;;;;;;;5026875;28;20024;-67
2023/07/10 14:35:35;;;;;;;20.05;6.13;;;;;;;;;;5028865;28;20029;-67
2023/07/10 14:38:02;;;;;;;18.98;5.30;;;;;;;;;;5031416;28;20063;-67
2023/07/10 14:40:28;;;;;;;17.42;5.60;;;;;;;;;;5028743;28;20029;-67